sensor_id;sensor_type;location;lat;lon;timestamp;temperature;humidity
3705;DHT22;1868;48.918;9.438;2023-12-20T00:02:05;7.00;97.40
3705;DHT22;1868;48.918;9.438;2023-12-20T00:04:34;7.00;97.40
3705;DHT22;1868;48.918;9.438;2023-12-20T00:07:03;7.00;97.40
3705;DHT22;1868;48.918;9.438;2023-12-20T00:09:33;7.00;97.40
3705;DHT22;1868;48.918;9.438;2023-12-20T00:12:02;7.00;97.40
3705;DHT22;1868;48.918;9.438;2023-12-20T00:14:31;7.00;97.40
3705;DHT22;1868;48.918;9.438;2023-12-20T00:17:02;6.90;97.40
3705;DHT22;1868;48.918;9.438;2023-12-20T00:19:31;6.90;97.40
3705;DHT22;1868;48.918;9.438;2023-12-20T00:22:00;6.90;97.40
3705;DHT22;1868;48.918;9.438;2023-12-20T00:24:28;6.90;97.40
3705;DHT22;1868;48.918;9.438;2023-12-20T00:26:58;6.90;97.40
3705;DHT22;1868;48.918;9.438;2023-12-20T00:29:27;6.90;97.40
3705;DHT22;1868;48.918;9.438;2023-12-20T00:31:57;6.90;97.40
3705;DHT22;1868;48.918;9.438;2023-12-20T00:34:27;6.90;97.40
3705;DHT22;1868;48.918;9.438;2023-12-20T00:36:56;6.80;97.40
3705;DHT22;1868;48.918;9.438;2023-12-20T00:39:25;6.80;97.40
3705;DHT22;1868;48.918;9.438;2023-12-20T00:41:54;6.80;97.40
3705;DHT22;1868;48.918;9.438;2023-12-20T00:44:23;6.70;97.40
3705;DHT22;1868;48.918;9.438;2023-12-20T00:46:52;6.70;97.40
3705;DHT22;1868;48.918;9.438;2023-12-20T00:49:22;6.60;97.40
3705;DHT22;1868;48.918;9.438;2023-12-20T00:51:52;6.50;97.40
3705;DHT22;1868;48.918;9.438;2023-12-20T00:54:21;6.50;97.40
3705;DHT22;1868;48.918;9.438;2023-12-20T00:56:50;6.50;97.40
3705;DHT22;1868;48.918;9.438;2023-12-20T00:59:19;6.40;97.40
3705;DHT22;1868;48.918;9.438;2023-12-20T01:01:49;6.40;97.40
3705;DHT22;1868;48.918;9.438;2023-12-20T01:04:19;6.40;97.40
3705;DHT22;1868;48.918;9.438;2023-12-20T01:06:48;6.30;97.40
3705;DHT22;1868;48.918;9.438;2023-12-20T01:09:18;6.30;97.40
3705;DHT22;1868;48.918;9.438;2023-12-20T01:11:50;6.20;97.40
3705;DHT22;1868;48.918;9.438;2023-12-20T01:14:19;6.20;97.40
3705;DHT22;1868;48.918;9.438;2023-12-20T01:16:48;6.10;97.40
3705;DHT22;1868;48.918;9.438;2023-12-20T01:19:17;6.10;97.40
3705;DHT22;1868;48.918;9.438;2023-12-20T01:21:46;6.10;97.40
3705;DHT22;1868;48.918;9.438;2023-12-20T01:24:15;6.10;97.40
3705;DHT22;1868;48.918;9.438;2023-12-20T01:26:45;6.00;97.40
3705;DHT22;1868;48.918;9.438;2023-12-20T01:29:14;6.00;97.40
3705;DHT22;1868;48.918;9.438;2023-12-20T01:31:43;6.00;97.40
3705;DHT22;1868;48.918;9.438;2023-12-20T01:34:12;5.90;97.40
3705;DHT22;1868;48.918;9.438;2023-12-20T01:36:42;5.90;97.40
3705;DHT22;1868;48.918;9.438;2023-12-20T01:39:11;5.90;97.40
3705;DHT22;1868;48.918;9.438;2023-12-20T01:41:55;5.80;97.40
3705;DHT22;1868;48.918;9.438;2023-12-20T01:44:24;5.80;97.40
3705;DHT22;1868;48.918;9.438;2023-12-20T01:46:54;5.80;97.40
3705;DHT22;1868;48.918;9.438;2023-12-20T01:49:23;5.80;97.40
3705;DHT22;1868;48.918;9.438;2023-12-20T01:51:56;5.80;97.40
3705;DHT22;1868;48.918;9.438;2023-12-20T01:54:28;5.80;97.40
3705;DHT22;1868;48.918;9.438;2023-12-20T01:57:00;5.80;97.40
3705;DHT22;1868;48.918;9.438;2023-12-20T01:59:29;5.80;97.40
3705;DHT22;1868;48.918;9.438;2023-12-20T02:01:59;5.80;97.40
3705;DHT22;1868;48.918;9.438;2023-12-20T02:04:28;5.70;97.40
3705;DHT22;1868;48.918;9.438;2023-12-20T02:06:57;5.80;97.40
3705;DHT22;1868;48.918;9.438;2023-12-20T02:09:27;5.80;97.40
3705;DHT22;1868;48.918;9.438;2023-12-20T02:11:57;5.80;97.40
3705;DHT22;1868;48.918;9.438;2023-12-20T02:14:27;5.80;97.40
3705;DHT22;1868;48.918;9.438;2023-12-20T02:16:56;5.90;97.40
3705;DHT22;1868;48.918;9.438;2023-12-20T02:19:25;5.90;97.40
3705;DHT22;1868;48.918;9.438;2023-12-20T02:22:07;5.90;97.40
3705;DHT22;1868;48.918;9.438;2023-12-20T02:24:36;5.90;97.40
3705;DHT22;1868;48.918;9.438;2023-12-20T02:27:06;5.90;97.40
3705;DHT22;1868;48.918;9.438;2023-12-20T02:29:36;5.90;97.40
3705;DHT22;1868;48.918;9.438;2023-12-20T02:32:05;5.90;97.40
3705;DHT22;1868;48.918;9.438;2023-12-20T02:34:34;5.90;97.40
3705;DHT22;1868;48.918;9.438;2023-12-20T02:37:03;5.90;97.40
3705;DHT22;1868;48.918;9.438;2023-12-20T02:39:33;5.90;97.40
3705;DHT22;1868;48.918;9.438;2023-12-20T02:42:03;6.00;97.40
3705;DHT22;1868;48.918;9.438;2023-12-20T02:44:31;6.00;97.40
3705;DHT22;1868;48.918;9.438;2023-12-20T02:47:01;5.90;97.40
3705;DHT22;1868;48.918;9.438;2023-12-20T02:49:31;6.00;97.40
3705;DHT22;1868;48.918;9.438;2023-12-20T02:52:00;6.00;97.40
3705;DHT22;1868;48.918;9.438;2023-12-20T02:54:33;6.00;97.40
3705;DHT22;1868;48.918;9.438;2023-12-20T02:57:03;6.10;97.40
3705;DHT22;1868;48.918;9.438;2023-12-20T02:59:32;6.10;97.40
3705;DHT22;1868;48.918;9.438;2023-12-20T03:02:01;6.10;97.40
3705;DHT22;1868;48.918;9.438;2023-12-20T03:04:30;6.10;97.40
3705;DHT22;1868;48.918;9.438;2023-12-20T03:06:59;6.10;97.40
3705;DHT22;1868;48.918;9.438;2023-12-20T03:09:29;6.10;97.40
3705;DHT22;1868;48.918;9.438;2023-12-20T03:12:19;6.10;97.40
3705;DHT22;1868;48.918;9.438;2023-12-20T03:14:48;6.20;97.40
3705;DHT22;1868;48.918;9.438;2023-12-20T03:17:17;6.10;97.40
3705;DHT22;1868;48.918;9.438;2023-12-20T03:19:46;6.10;97.40
3705;DHT22;1868;48.918;9.438;2023-12-20T03:22:16;6.10;97.40
3705;DHT22;1868;48.918;9.438;2023-12-20T03:24:45;6.20;97.40
3705;DHT22;1868;48.918;9.438;2023-12-20T03:27:14;6.20;97.40
3705;DHT22;1868;48.918;9.438;2023-12-20T03:29:44;6.20;97.40
3705;DHT22;1868;48.918;9.438;2023-12-20T03:32:13;6.20;97.40
3705;DHT22;1868;48.918;9.438;2023-12-20T03:34:42;6.20;97.40
3705;DHT22;1868;48.918;9.438;2023-12-20T03:37:10;6.20;97.40
3705;DHT22;1868;48.918;9.438;2023-12-20T03:39:40;6.20;97.40
3705;DHT22;1868;48.918;9.438;2023-12-20T03:42:09;6.20;97.40
3705;DHT22;1868;48.918;9.438;2023-12-20T03:44:40;6.20;97.40
3705;DHT22;1868;48.918;9.438;2023-12-20T03:47:11;6.20;97.40
3705;DHT22;1868;48.918;9.438;2023-12-20T03:49:39;6.30;97.40
3705;DHT22;1868;48.918;9.438;2023-12-20T03:52:08;6.20;97.40
3705;DHT22;1868;48.918;9.438;2023-12-20T03:54:37;6.20;97.40
3705;DHT22;1868;48.918;9.438;2023-12-20T03:57:05;6.30;97.40
3705;DHT22;1868;48.918;9.438;2023-12-20T03:59:35;6.20;97.40
3705;DHT22;1868;48.918;9.438;2023-12-20T04:02:04;6.20;97.40
3705;DHT22;1868;48.918;9.438;2023-12-20T04:04:34;6.20;97.40
3705;DHT22;1868;48.918;9.438;2023-12-20T04:07:04;6.20;97.40
3705;DHT22;1868;48.918;9.438;2023-12-20T04:09:33;6.30;97.40
3705;DHT22;1868;48.918;9.438;2023-12-20T04:12:02;6.30;97.40
3705;DHT22;1868;48.918;9.438;2023-12-20T04:14:32;6.20;97.40
3705;DHT22;1868;48.918;9.438;2023-12-20T04:17:03;6.20;97.40
3705;DHT22;1868;48.918;9.438;2023-12-20T04:19:32;6.20;97.40
3705;DHT22;1868;48.918;9.438;2023-12-20T04:22:04;6.20;97.40
3705;DHT22;1868;48.918;9.438;2023-12-20T04:24:35;6.20;97.40
3705;DHT22;1868;48.918;9.438;2023-12-20T04:27:04;6.20;97.40
3705;DHT22;1868;48.918;9.438;2023-12-20T04:29:33;6.20;97.40
3705;DHT22;1868;48.918;9.438;2023-12-20T04:32:03;6.10;97.40
3705;DHT22;1868;48.918;9.438;2023-12-20T04:34:32;6.20;97.40
3705;DHT22;1868;48.918;9.438;2023-12-20T04:37:04;6.10;97.40
3705;DHT22;1868;48.918;9.438;2023-12-20T04:39:36;6.10;97.40
3705;DHT22;1868;48.918;9.438;2023-12-20T04:42:05;6.10;97.40
3705;DHT22;1868;48.918;9.438;2023-12-20T04:44:34;6.10;97.40
3705;DHT22;1868;48.918;9.438;2023-12-20T04:47:03;6.10;97.40
3705;DHT22;1868;48.918;9.438;2023-12-20T04:49:33;6.00;97.40
3705;DHT22;1868;48.918;9.438;2023-12-20T04:52:05;6.10;97.40
3705;DHT22;1868;48.918;9.438;2023-12-20T04:54:34;6.10;97.40
3705;DHT22;1868;48.918;9.438;2023-12-20T04:57:04;6.10;97.40
3705;DHT22;1868;48.918;9.438;2023-12-20T04:59:32;6.20;97.40
3705;DHT22;1868;48.918;9.438;2023-12-20T05:02:01;6.10;97.40
3705;DHT22;1868;48.918;9.438;2023-12-20T05:04:30;6.10;97.40
3705;DHT22;1868;48.918;9.438;2023-12-20T05:07:01;6.10;97.40
3705;DHT22;1868;48.918;9.438;2023-12-20T05:09:33;6.10;97.40
3705;DHT22;1868;48.918;9.438;2023-12-20T05:12:03;6.20;97.40
3705;DHT22;1868;48.918;9.438;2023-12-20T05:14:32;6.10;97.40
3705;DHT22;1868;48.918;9.438;2023-12-20T05:17:01;6.10;97.40
3705;DHT22;1868;48.918;9.438;2023-12-20T05:19:31;6.10;97.40
3705;DHT22;1868;48.918;9.438;2023-12-20T05:22:02;6.10;97.40
3705;DHT22;1868;48.918;9.438;2023-12-20T05:24:34;6.10;97.40
3705;DHT22;1868;48.918;9.438;2023-12-20T05:27:03;6.10;97.40
3705;DHT22;1868;48.918;9.438;2023-12-20T05:29:32;6.10;97.40
3705;DHT22;1868;48.918;9.438;2023-12-20T05:32:03;6.10;97.40
3705;DHT22;1868;48.918;9.438;2023-12-20T05:34:32;6.20;97.40
3705;DHT22;1868;48.918;9.438;2023-12-20T05:37:03;6.20;97.40
3705;DHT22;1868;48.918;9.438;2023-12-20T05:39:34;6.20;97.40
3705;DHT22;1868;48.918;9.438;2023-12-20T05:42:03;6.20;97.40
3705;DHT22;1868;48.918;9.438;2023-12-20T05:44:33;6.20;97.40
3705;DHT22;1868;48.918;9.438;2023-12-20T05:47:03;6.10;97.40
3705;DHT22;1868;48.918;9.438;2023-12-20T05:49:32;6.10;97.40
3705;DHT22;1868;48.918;9.438;2023-12-20T05:52:01;6.10;97.40
3705;DHT22;1868;48.918;9.438;2023-12-20T05:54:30;6.20;97.40
3705;DHT22;1868;48.918;9.438;2023-12-20T05:57:01;6.20;97.40
3705;DHT22;1868;48.918;9.438;2023-12-20T05:59:30;6.20;97.40
3705;DHT22;1868;48.918;9.438;2023-12-20T06:02:00;6.20;97.40
3705;DHT22;1868;48.918;9.438;2023-12-20T06:04:29;6.20;97.40
3705;DHT22;1868;48.918;9.438;2023-12-20T06:06:59;6.20;97.40
3705;DHT22;1868;48.918;9.438;2023-12-20T06:09:30;6.30;97.40
3705;DHT22;1868;48.918;9.438;2023-12-20T06:12:01;6.30;97.40
3705;DHT22;1868;48.918;9.438;2023-12-20T06:14:28;6.20;97.40
3705;DHT22;1868;48.918;9.438;2023-12-20T06:16:57;6.30;97.40
3705;DHT22;1868;48.918;9.438;2023-12-20T06:19:26;6.30;97.40
3705;DHT22;1868;48.918;9.438;2023-12-20T06:21:55;6.30;97.40
3705;DHT22;1868;48.918;9.438;2023-12-20T06:24:24;6.30;97.40
3705;DHT22;1868;48.918;9.438;2023-12-20T06:26:57;6.30;97.40
3705;DHT22;1868;48.918;9.438;2023-12-20T06:29:28;6.30;97.40
3705;DHT22;1868;48.918;9.438;2023-12-20T06:31:58;6.30;97.40
3705;DHT22;1868;48.918;9.438;2023-12-20T06:34:28;6.30;97.40
3705;DHT22;1868;48.918;9.438;2023-12-20T06:36:58;6.30;97.40
3705;DHT22;1868;48.918;9.438;2023-12-20T06:39:27;6.30;97.40
3705;DHT22;1868;48.918;9.438;2023-12-20T06:41:58;6.30;97.40
3705;DHT22;1868;48.918;9.438;2023-12-20T06:44:28;6.30;97.40
3705;DHT22;1868;48.918;9.438;2023-12-20T06:46:56;6.30;97.40
3705;DHT22;1868;48.918;9.438;2023-12-20T06:49:25;6.30;97.40
3705;DHT22;1868;48.918;9.438;2023-12-20T06:51:55;6.30;97.40
3705;DHT22;1868;48.918;9.438;2023-12-20T06:54:24;6.30;97.40
3705;DHT22;1868;48.918;9.438;2023-12-20T06:56:53;6.30;97.40
3705;DHT22;1868;48.918;9.438;2023-12-20T06:59:23;6.30;97.40
3705;DHT22;1868;48.918;9.438;2023-12-20T07:01:53;6.30;97.40
3705;DHT22;1868;48.918;9.438;2023-12-20T07:04:23;6.40;97.40
3705;DHT22;1868;48.918;9.438;2023-12-20T07:06:52;6.40;97.40
3705;DHT22;1868;48.918;9.438;2023-12-20T07:09:25;6.40;97.40
3705;DHT22;1868;48.918;9.438;2023-12-20T07:11:53;6.30;97.40
3705;DHT22;1868;48.918;9.438;2023-12-20T07:14:22;6.40;97.40
3705;DHT22;1868;48.918;9.438;2023-12-20T07:16:52;6.40;97.40
3705;DHT22;1868;48.918;9.438;2023-12-20T07:19:21;6.50;97.40
3705;DHT22;1868;48.918;9.438;2023-12-20T07:21:50;6.40;97.40
3705;DHT22;1868;48.918;9.438;2023-12-20T07:24:20;6.50;97.40
3705;DHT22;1868;48.918;9.438;2023-12-20T07:26:50;6.40;97.40
3705;DHT22;1868;48.918;9.438;2023-12-20T07:29:19;6.40;97.40
3705;DHT22;1868;48.918;9.438;2023-12-20T07:31:48;6.50;97.40
3705;DHT22;1868;48.918;9.438;2023-12-20T07:34:20;6.50;97.40
3705;DHT22;1868;48.918;9.438;2023-12-20T07:36:49;6.50;97.40
3705;DHT22;1868;48.918;9.438;2023-12-20T07:39:18;6.50;97.40
3705;DHT22;1868;48.918;9.438;2023-12-20T07:41:48;6.40;97.40
3705;DHT22;1868;48.918;9.438;2023-12-20T07:44:16;6.40;97.40
3705;DHT22;1868;48.918;9.438;2023-12-20T07:46:46;6.40;97.40
3705;DHT22;1868;48.918;9.438;2023-12-20T07:49:15;6.40;97.40
3705;DHT22;1868;48.918;9.438;2023-12-20T07:51:47;6.40;97.40
3705;DHT22;1868;48.918;9.438;2023-12-20T07:54:17;6.50;97.40
3705;DHT22;1868;48.918;9.438;2023-12-20T07:56:49;6.50;97.40
3705;DHT22;1868;48.918;9.438;2023-12-20T07:59:20;6.50;97.40
3705;DHT22;1868;48.918;9.438;2023-12-20T08:01:58;6.50;97.40
3705;DHT22;1868;48.918;9.438;2023-12-20T08:04:28;6.40;97.40
3705;DHT22;1868;48.918;9.438;2023-12-20T08:06:59;6.50;97.40
3705;DHT22;1868;48.918;9.438;2023-12-20T08:09:28;6.50;97.40
3705;DHT22;1868;48.918;9.438;2023-12-20T08:11:56;6.50;97.40
3705;DHT22;1868;48.918;9.438;2023-12-20T08:14:26;6.50;97.40
3705;DHT22;1868;48.918;9.438;2023-12-20T08:16:58;6.50;97.40
3705;DHT22;1868;48.918;9.438;2023-12-20T08:19:27;6.50;97.40
3705;DHT22;1868;48.918;9.438;2023-12-20T08:21:55;6.50;97.40
3705;DHT22;1868;48.918;9.438;2023-12-20T08:24:26;6.50;97.40
3705;DHT22;1868;48.918;9.438;2023-12-20T08:26:55;6.40;97.40
3705;DHT22;1868;48.918;9.438;2023-12-20T08:29:24;6.50;97.40
3705;DHT22;1868;48.918;9.438;2023-12-20T08:31:53;6.50;97.40
3705;DHT22;1868;48.918;9.438;2023-12-20T08:34:22;6.50;97.40
3705;DHT22;1868;48.918;9.438;2023-12-20T08:36:52;6.50;97.40
3705;DHT22;1868;48.918;9.438;2023-12-20T08:39:20;6.50;97.40
3705;DHT22;1868;48.918;9.438;2023-12-20T08:41:51;6.50;97.40
3705;DHT22;1868;48.918;9.438;2023-12-20T08:44:19;6.30;97.40
3705;DHT22;1868;48.918;9.438;2023-12-20T08:46:49;6.30;97.40
3705;DHT22;1868;48.918;9.438;2023-12-20T08:49:18;6.40;97.40
3705;DHT22;1868;48.918;9.438;2023-12-20T08:51:47;6.30;97.40
3705;DHT22;1868;48.918;9.438;2023-12-20T08:54:16;6.30;97.40
3705;DHT22;1868;48.918;9.438;2023-12-20T08:56:46;6.30;97.40
3705;DHT22;1868;48.918;9.438;2023-12-20T08:59:17;6.20;97.40
3705;DHT22;1868;48.918;9.438;2023-12-20T09:01:46;6.20;97.40
3705;DHT22;1868;48.918;9.438;2023-12-20T09:04:21;6.20;97.40
3705;DHT22;1868;48.918;9.438;2023-12-20T09:06:51;6.20;97.40
3705;DHT22;1868;48.918;9.438;2023-12-20T09:09:20;6.20;97.40
3705;DHT22;1868;48.918;9.438;2023-12-20T09:11:48;6.10;97.40
3705;DHT22;1868;48.918;9.438;2023-12-20T09:14:19;6.00;97.40
3705;DHT22;1868;48.918;9.438;2023-12-20T09:16:49;6.00;97.40
3705;DHT22;1868;48.918;9.438;2023-12-20T09:19:18;6.10;97.40
3705;DHT22;1868;48.918;9.438;2023-12-20T09:21:48;6.10;97.40
3705;DHT22;1868;48.918;9.438;2023-12-20T09:24:16;6.00;97.40
3705;DHT22;1868;48.918;9.438;2023-12-20T09:26:46;6.10;97.40
3705;DHT22;1868;48.918;9.438;2023-12-20T09:29:15;6.20;97.40
3705;DHT22;1868;48.918;9.438;2023-12-20T09:31:46;6.20;97.40
3705;DHT22;1868;48.918;9.438;2023-12-20T09:34:15;6.30;97.40
3705;DHT22;1868;48.918;9.438;2023-12-20T09:36:45;6.30;97.40
3705;DHT22;1868;48.918;9.438;2023-12-20T09:39:15;6.30;97.40
3705;DHT22;1868;48.918;9.438;2023-12-20T09:41:51;6.30;97.40
3705;DHT22;1868;48.918;9.438;2023-12-20T09:44:32;6.40;97.40
3705;DHT22;1868;48.918;9.438;2023-12-20T09:47:04;6.40;97.40
3705;DHT22;1868;48.918;9.438;2023-12-20T09:49:33;6.40;97.40
3705;DHT22;1868;48.918;9.438;2023-12-20T09:52:05;6.50;97.40
3705;DHT22;1868;48.918;9.438;2023-12-20T09:54:36;6.50;97.40
3705;DHT22;1868;48.918;9.438;2023-12-20T09:57:05;6.60;97.40
3705;DHT22;1868;48.918;9.438;2023-12-20T09:59:34;6.70;97.40
3705;DHT22;1868;48.918;9.438;2023-12-20T10:02:08;6.70;97.40
3705;DHT22;1868;48.918;9.438;2023-12-20T10:04:46;6.80;97.40
3705;DHT22;1868;48.918;9.438;2023-12-20T10:07:16;6.90;97.40
3705;DHT22;1868;48.918;9.438;2023-12-20T10:09:48;7.00;97.40
3705;DHT22;1868;48.918;9.438;2023-12-20T10:12:17;7.10;97.40
3705;DHT22;1868;48.918;9.438;2023-12-20T10:14:48;7.10;97.40
3705;DHT22;1868;48.918;9.438;2023-12-20T10:17:21;7.10;97.40
3705;DHT22;1868;48.918;9.438;2023-12-20T10:19:50;7.30;97.40
3705;DHT22;1868;48.918;9.438;2023-12-20T10:22:19;7.50;97.40
3705;DHT22;1868;48.918;9.438;2023-12-20T10:24:48;7.60;97.40
3705;DHT22;1868;48.918;9.438;2023-12-20T10:27:18;7.90;97.40
3705;DHT22;1868;48.918;9.438;2023-12-20T10:29:48;7.90;97.40
3705;DHT22;1868;48.918;9.438;2023-12-20T10:32:26;8.20;97.40
3705;DHT22;1868;48.918;9.438;2023-12-20T10:34:56;8.40;97.40
3705;DHT22;1868;48.918;9.438;2023-12-20T10:37:27;8.50;97.40
3705;DHT22;1868;48.918;9.438;2023-12-20T10:40:00;8.60;97.40
3705;DHT22;1868;48.918;9.438;2023-12-20T10:42:33;8.60;97.40
3705;DHT22;1868;48.918;9.438;2023-12-20T10:45:04;8.40;97.40
3705;DHT22;1868;48.918;9.438;2023-12-20T10:47:36;8.40;97.40
3705;DHT22;1868;48.918;9.438;2023-12-20T10:50:10;8.20;97.40
3705;DHT22;1868;48.918;9.438;2023-12-20T10:52:40;8.00;97.40
3705;DHT22;1868;48.918;9.438;2023-12-20T10:55:10;7.90;97.40
3705;DHT22;1868;48.918;9.438;2023-12-20T10:57:39;7.70;97.40
3705;DHT22;1868;48.918;9.438;2023-12-20T11:00:14;7.70;97.40
3705;DHT22;1868;48.918;9.438;2023-12-20T11:02:49;7.50;97.40
3705;DHT22;1868;48.918;9.438;2023-12-20T11:05:28;7.50;97.40
3705;DHT22;1868;48.918;9.438;2023-12-20T11:08:06;7.40;97.40
3705;DHT22;1868;48.918;9.438;2023-12-20T11:10:42;7.60;97.40
3705;DHT22;1868;48.918;9.438;2023-12-20T11:13:20;7.70;97.40
3705;DHT22;1868;48.918;9.438;2023-12-20T11:15:51;7.70;97.40
3705;DHT22;1868;48.918;9.438;2023-12-20T11:18:28;8.00;97.40
3705;DHT22;1868;48.918;9.438;2023-12-20T11:21:01;8.20;97.40
3705;DHT22;1868;48.918;9.438;2023-12-20T11:23:32;8.20;97.40
3705;DHT22;1868;48.918;9.438;2023-12-20T11:26:03;8.00;97.40
3705;DHT22;1868;48.918;9.438;2023-12-20T11:28:31;8.00;97.40
3705;DHT22;1868;48.918;9.438;2023-12-20T11:31:01;8.10;97.40
3705;DHT22;1868;48.918;9.438;2023-12-20T11:33:36;8.10;97.40
3705;DHT22;1868;48.918;9.438;2023-12-20T11:36:13;8.30;97.40
3705;DHT22;1868;48.918;9.438;2023-12-20T11:39:01;8.40;97.40
3705;DHT22;1868;48.918;9.438;2023-12-20T11:41:38;8.40;97.40
3705;DHT22;1868;48.918;9.438;2023-12-20T11:44:07;8.30;97.40
3705;DHT22;1868;48.918;9.438;2023-12-20T11:46:40;8.30;97.40
3705;DHT22;1868;48.918;9.438;2023-12-20T11:49:11;8.10;97.40
3705;DHT22;1868;48.918;9.438;2023-12-20T11:51:41;7.90;97.40
3705;DHT22;1868;48.918;9.438;2023-12-20T11:54:12;7.80;97.40
3705;DHT22;1868;48.918;9.438;2023-12-20T11:56:42;7.70;97.40
3705;DHT22;1868;48.918;9.438;2023-12-20T11:59:12;7.50;97.40
3705;DHT22;1868;48.918;9.438;2023-12-20T12:01:50;7.30;97.40
3705;DHT22;1868;48.918;9.438;2023-12-20T12:04:20;7.30;97.40
3705;DHT22;1868;48.918;9.438;2023-12-20T12:06:51;7.20;97.40
3705;DHT22;1868;48.918;9.438;2023-12-20T12:09:23;7.10;97.40
3705;DHT22;1868;48.918;9.438;2023-12-20T12:11:52;7.10;97.40
3705;DHT22;1868;48.918;9.438;2023-12-20T12:14:22;7.10;97.40
3705;DHT22;1868;48.918;9.438;2023-12-20T12:16:51;7.00;97.40
3705;DHT22;1868;48.918;9.438;2023-12-20T12:19:23;7.00;97.40
3705;DHT22;1868;48.918;9.438;2023-12-20T12:22:04;7.10;97.40
3705;DHT22;1868;48.918;9.438;2023-12-20T12:24:35;7.20;97.40
3705;DHT22;1868;48.918;9.438;2023-12-20T12:27:06;7.20;97.40
3705;DHT22;1868;48.918;9.438;2023-12-20T12:29:36;7.20;97.40
3705;DHT22;1868;48.918;9.438;2023-12-20T12:32:06;7.30;97.40
3705;DHT22;1868;48.918;9.438;2023-12-20T12:34:39;7.30;97.40
3705;DHT22;1868;48.918;9.438;2023-12-20T12:37:09;7.30;97.40
3705;DHT22;1868;48.918;9.438;2023-12-20T12:39:53;7.50;97.40
3705;DHT22;1868;48.918;9.438;2023-12-20T12:42:36;7.50;97.40
3705;DHT22;1868;48.918;9.438;2023-12-20T12:45:07;7.50;97.40
3705;DHT22;1868;48.918;9.438;2023-12-20T12:47:37;7.50;97.40
3705;DHT22;1868;48.918;9.438;2023-12-20T12:50:13;7.50;97.40
3705;DHT22;1868;48.918;9.438;2023-12-20T12:52:42;7.50;97.40
3705;DHT22;1868;48.918;9.438;2023-12-20T12:55:14;7.40;97.40
3705;DHT22;1868;48.918;9.438;2023-12-20T12:57:43;7.40;97.40
3705;DHT22;1868;48.918;9.438;2023-12-20T13:00:13;7.40;97.40
3705;DHT22;1868;48.918;9.438;2023-12-20T13:02:42;7.40;97.40
3705;DHT22;1868;48.918;9.438;2023-12-20T13:05:12;7.40;97.40
3705;DHT22;1868;48.918;9.438;2023-12-20T13:07:41;7.40;97.40
3705;DHT22;1868;48.918;9.438;2023-12-20T13:10:14;7.20;97.40
3705;DHT22;1868;48.918;9.438;2023-12-20T13:12:44;7.30;97.40
3705;DHT22;1868;48.918;9.438;2023-12-20T13:15:13;7.20;97.40
3705;DHT22;1868;48.918;9.438;2023-12-20T13:17:43;7.30;97.40
3705;DHT22;1868;48.918;9.438;2023-12-20T13:20:15;7.20;97.40
3705;DHT22;1868;48.918;9.438;2023-12-20T13:22:44;7.20;97.40
3705;DHT22;1868;48.918;9.438;2023-12-20T13:25:14;7.30;97.40
3705;DHT22;1868;48.918;9.438;2023-12-20T13:27:46;7.20;97.40
3705;DHT22;1868;48.918;9.438;2023-12-20T13:30:17;7.10;97.40
3705;DHT22;1868;48.918;9.438;2023-12-20T13:32:48;7.20;97.40
3705;DHT22;1868;48.918;9.438;2023-12-20T13:35:19;7.20;97.40
3705;DHT22;1868;48.918;9.438;2023-12-20T13:37:49;7.20;97.40
3705;DHT22;1868;48.918;9.438;2023-12-20T13:40:19;7.00;97.40
3705;DHT22;1868;48.918;9.438;2023-12-20T13:42:47;7.00;97.40
3705;DHT22;1868;48.918;9.438;2023-12-20T13:45:16;7.00;97.40
3705;DHT22;1868;48.918;9.438;2023-12-20T13:47:44;7.10;97.40
3705;DHT22;1868;48.918;9.438;2023-12-20T13:50:13;7.10;97.40
3705;DHT22;1868;48.918;9.438;2023-12-20T13:52:44;7.00;97.40
3705;DHT22;1868;48.918;9.438;2023-12-20T13:55:13;7.00;97.40
3705;DHT22;1868;48.918;9.438;2023-12-20T13:57:43;6.90;97.40
3705;DHT22;1868;48.918;9.438;2023-12-20T14:00:22;6.90;97.40
3705;DHT22;1868;48.918;9.438;2023-12-20T14:02:51;6.90;97.40
3705;DHT22;1868;48.918;9.438;2023-12-20T14:05:20;6.90;97.40
3705;DHT22;1868;48.918;9.438;2023-12-20T14:07:57;6.80;97.40
3705;DHT22;1868;48.918;9.438;2023-12-20T14:10:26;6.90;97.40
3705;DHT22;1868;48.918;9.438;2023-12-20T14:12:58;6.80;97.40
3705;DHT22;1868;48.918;9.438;2023-12-20T14:15:27;6.80;97.40
3705;DHT22;1868;48.918;9.438;2023-12-20T14:18:05;6.70;97.40
3705;DHT22;1868;48.918;9.438;2023-12-20T14:20:35;6.70;97.40
3705;DHT22;1868;48.918;9.438;2023-12-20T14:23:08;6.70;97.40
3705;DHT22;1868;48.918;9.438;2023-12-20T14:25:37;6.60;97.40
3705;DHT22;1868;48.918;9.438;2023-12-20T14:28:18;6.40;97.40
3705;DHT22;1868;48.918;9.438;2023-12-20T14:30:49;6.50;97.40
3705;DHT22;1868;48.918;9.438;2023-12-20T14:33:18;6.40;97.40
3705;DHT22;1868;48.918;9.438;2023-12-20T14:35:49;6.40;97.40
3705;DHT22;1868;48.918;9.438;2023-12-20T14:38:19;6.30;97.40
3705;DHT22;1868;48.918;9.438;2023-12-20T14:40:48;6.30;97.40
3705;DHT22;1868;48.918;9.438;2023-12-20T14:43:17;6.20;97.40
3705;DHT22;1868;48.918;9.438;2023-12-20T14:45:46;6.20;97.40
3705;DHT22;1868;48.918;9.438;2023-12-20T14:48:15;6.10;97.40
3705;DHT22;1868;48.918;9.438;2023-12-20T14:50:45;6.10;97.40
3705;DHT22;1868;48.918;9.438;2023-12-20T14:53:15;6.20;97.40
3705;DHT22;1868;48.918;9.438;2023-12-20T14:55:50;6.10;97.40
3705;DHT22;1868;48.918;9.438;2023-12-20T14:58:21;6.10;97.40
3705;DHT22;1868;48.918;9.438;2023-12-20T15:00:49;6.00;97.40
3705;DHT22;1868;48.918;9.438;2023-12-20T15:03:20;5.90;97.40
3705;DHT22;1868;48.918;9.438;2023-12-20T15:05:49;5.90;97.40
3705;DHT22;1868;48.918;9.438;2023-12-20T15:08:18;5.90;97.40
3705;DHT22;1868;48.918;9.438;2023-12-20T15:10:46;5.80;97.40
3705;DHT22;1868;48.918;9.438;2023-12-20T15:13:16;5.80;97.40
3705;DHT22;1868;48.918;9.438;2023-12-20T15:15:46;5.80;97.40
3705;DHT22;1868;48.918;9.438;2023-12-20T15:18:16;5.80;97.40
3705;DHT22;1868;48.918;9.438;2023-12-20T15:20:47;5.80;97.40
3705;DHT22;1868;48.918;9.438;2023-12-20T15:23:16;5.80;97.40
3705;DHT22;1868;48.918;9.438;2023-12-20T15:25:45;5.80;97.40
3705;DHT22;1868;48.918;9.438;2023-12-20T15:28:16;5.80;97.40
3705;DHT22;1868;48.918;9.438;2023-12-20T15:30:45;5.80;97.40
3705;DHT22;1868;48.918;9.438;2023-12-20T15:33:15;5.80;97.40
3705;DHT22;1868;48.918;9.438;2023-12-20T15:35:43;5.80;97.40
3705;DHT22;1868;48.918;9.438;2023-12-20T15:38:12;5.70;97.40
3705;DHT22;1868;48.918;9.438;2023-12-20T15:40:42;5.80;97.40
3705;DHT22;1868;48.918;9.438;2023-12-20T15:43:11;5.80;97.40
3705;DHT22;1868;48.918;9.438;2023-12-20T15:45:41;5.70;97.40
3705;DHT22;1868;48.918;9.438;2023-12-20T15:48:10;5.80;97.40
3705;DHT22;1868;48.918;9.438;2023-12-20T15:50:45;5.70;97.40
3705;DHT22;1868;48.918;9.438;2023-12-20T15:53:13;5.70;97.40
3705;DHT22;1868;48.918;9.438;2023-12-20T15:55:41;5.70;97.40
3705;DHT22;1868;48.918;9.438;2023-12-20T15:58:10;5.70;97.40
3705;DHT22;1868;48.918;9.438;2023-12-20T16:00:40;5.60;97.40
3705;DHT22;1868;48.918;9.438;2023-12-20T16:03:09;5.60;97.40
3705;DHT22;1868;48.918;9.438;2023-12-20T16:05:51;5.50;97.40
3705;DHT22;1868;48.918;9.438;2023-12-20T16:08:21;5.50;97.40
3705;DHT22;1868;48.918;9.438;2023-12-20T16:10:50;5.50;97.40
3705;DHT22;1868;48.918;9.438;2023-12-20T16:13:21;5.50;97.40
3705;DHT22;1868;48.918;9.438;2023-12-20T16:15:51;5.50;97.40
3705;DHT22;1868;48.918;9.438;2023-12-20T16:18:21;5.50;97.40
3705;DHT22;1868;48.918;9.438;2023-12-20T16:20:52;5.50;97.40
3705;DHT22;1868;48.918;9.438;2023-12-20T16:23:21;5.50;97.40
3705;DHT22;1868;48.918;9.438;2023-12-20T16:25:49;5.50;97.40
3705;DHT22;1868;48.918;9.438;2023-12-20T16:28:19;5.50;97.40
3705;DHT22;1868;48.918;9.438;2023-12-20T16:30:48;5.50;97.40
3705;DHT22;1868;48.918;9.438;2023-12-20T16:33:20;5.60;97.40
3705;DHT22;1868;48.918;9.438;2023-12-20T16:35:49;5.60;97.40
3705;DHT22;1868;48.918;9.438;2023-12-20T16:38:18;5.60;97.40